sensor_id;sensor_type;location;lat;lon;timestamp;temperature;humidity
14705;DHT22;7442;50.840;3.396;2023-02-01T00:01:44;22.80;40.00
14705;DHT22;7442;50.840;3.396;2023-02-01T00:04:30;22.70;39.90
14705;DHT22;7442;50.840;3.396;2023-02-01T00:07:17;22.80;39.80
14705;DHT22;7442;50.840;3.396;2023-02-01T00:10:04;22.80;39.70
14705;DHT22;7442;50.840;3.396;2023-02-01T00:12:51;22.80;39.70
14705;DHT22;7442;50.840;3.396;2023-02-01T00:15:37;23.00;39.60
14705;DHT22;7442;50.840;3.396;2023-02-01T00:18:23;23.00;39.50
14705;DHT22;7442;50.840;3.396;2023-02-01T00:21:14;23.00;40.00
14705;DHT22;7442;50.840;3.396;2023-02-01T00:24:01;23.10;39.30
14705;DHT22;7442;50.840;3.396;2023-02-01T00:26:48;23.20;39.10
14705;DHT22;7442;50.840;3.396;2023-02-01T00:29:34;23.40;38.70
14705;DHT22;7442;50.840;3.396;2023-02-01T00:32:20;23.40;38.70
14705;DHT22;7442;50.840;3.396;2023-02-01T00:35:08;23.40;38.70
14705;DHT22;7442;50.840;3.396;2023-02-01T00:37:54;23.40;38.60
14705;DHT22;7442;50.840;3.396;2023-02-01T00:40:42;23.40;38.60
14705;DHT22;7442;50.840;3.396;2023-02-01T00:43:30;23.30;38.60
14705;DHT22;7442;50.840;3.396;2023-02-01T00:46:18;23.30;38.80
14705;DHT22;7442;50.840;3.396;2023-02-01T00:49:05;23.30;38.80
14705;DHT22;7442;50.840;3.396;2023-02-01T00:51:52;23.30;38.90
14705;DHT22;7442;50.840;3.396;2023-02-01T00:54:39;23.20;38.90
14705;DHT22;7442;50.840;3.396;2023-02-01T00:57:25;23.20;39.80
14705;DHT22;7442;50.840;3.396;2023-02-01T01:00:12;23.10;39.20
14705;DHT22;7442;50.840;3.396;2023-02-01T01:02:58;23.20;39.60
14705;DHT22;7442;50.840;3.396;2023-02-01T01:05:45;23.10;39.30
14705;DHT22;7442;50.840;3.396;2023-02-01T01:08:32;23.10;39.20
14705;DHT22;7442;50.840;3.396;2023-02-01T01:11:21;23.10;39.10
14705;DHT22;7442;50.840;3.396;2023-02-01T01:14:08;23.20;39.00
14705;DHT22;7442;50.840;3.396;2023-02-01T01:17:01;23.20;38.80
14705;DHT22;7442;50.840;3.396;2023-02-01T01:19:48;23.30;38.80
14705;DHT22;7442;50.840;3.396;2023-02-01T01:22:34;23.40;38.80
14705;DHT22;7442;50.840;3.396;2023-02-01T01:25:20;23.50;38.40
14705;DHT22;7442;50.840;3.396;2023-02-01T01:28:07;23.60;38.20
14705;DHT22;7442;50.840;3.396;2023-02-01T01:30:53;23.50;38.40
14705;DHT22;7442;50.840;3.396;2023-02-01T01:33:40;23.50;38.50
14705;DHT22;7442;50.840;3.396;2023-02-01T01:36:27;23.50;38.40
14705;DHT22;7442;50.840;3.396;2023-02-01T01:39:14;23.50;38.30
14705;DHT22;7442;50.840;3.396;2023-02-01T01:42:00;23.50;38.30
14705;DHT22;7442;50.840;3.396;2023-02-01T01:45:04;23.40;38.40
14705;DHT22;7442;50.840;3.396;2023-02-01T01:48:10;23.40;38.50
14705;DHT22;7442;50.840;3.396;2023-02-01T01:51:01;23.40;38.60
14705;DHT22;7442;50.840;3.396;2023-02-01T01:53:54;23.30;38.80
14705;DHT22;7442;50.840;3.396;2023-02-01T01:56:36;23.30;38.80
14705;DHT22;7442;50.840;3.396;2023-02-01T01:59:24;23.20;39.60
14705;DHT22;7442;50.840;3.396;2023-02-01T02:02:12;23.20;39.00
14705;DHT22;7442;50.840;3.396;2023-02-01T02:04:58;23.20;39.00
14705;DHT22;7442;50.840;3.396;2023-02-01T02:07:46;23.20;39.10
14705;DHT22;7442;50.840;3.396;2023-02-01T02:10:34;23.20;39.10
14705;DHT22;7442;50.840;3.396;2023-02-01T02:13:42;23.20;39.10
14705;DHT22;7442;50.840;3.396;2023-02-01T02:16:41;23.20;39.10
14705;DHT22;7442;50.840;3.396;2023-02-01T02:26:34;23.20;38.90
14705;DHT22;7442;50.840;3.396;2023-02-01T02:29:35;23.30;38.90
14705;DHT22;7442;50.840;3.396;2023-02-01T02:32:34;23.40;38.80
14705;DHT22;7442;50.840;3.396;2023-02-01T02:41:15;23.60;38.30
14705;DHT22;7442;50.840;3.396;2023-02-01T02:43:59;23.60;38.30
14705;DHT22;7442;50.840;3.396;2023-02-01T02:47:10;23.60;38.20
14705;DHT22;7442;50.840;3.396;2023-02-01T02:53:33;23.60;38.10
14705;DHT22;7442;50.840;3.396;2023-02-01T02:56:40;23.60;38.10
14705;DHT22;7442;50.840;3.396;2023-02-01T02:59:46;23.60;38.30
14705;DHT22;7442;50.840;3.396;2023-02-01T03:02:52;23.50;38.40
14705;DHT22;7442;50.840;3.396;2023-02-01T03:05:56;23.50;38.50
14705;DHT22;7442;50.840;3.396;2023-02-01T03:08:43;23.40;38.50
14705;DHT22;7442;50.840;3.396;2023-02-01T03:11:31;23.40;38.70
14705;DHT22;7442;50.840;3.396;2023-02-01T03:14:40;23.30;38.80
14705;DHT22;7442;50.840;3.396;2023-02-01T03:17:31;23.30;38.80
14705;DHT22;7442;50.840;3.396;2023-02-01T03:20:18;23.30;38.80
14705;DHT22;7442;50.840;3.396;2023-02-01T03:23:05;23.40;38.80
14705;DHT22;7442;50.840;3.396;2023-02-01T03:25:53;23.40;38.70
14705;DHT22;7442;50.840;3.396;2023-02-01T03:28:48;23.40;38.60
14705;DHT22;7442;50.840;3.396;2023-02-01T03:31:33;23.50;38.50
14705;DHT22;7442;50.840;3.396;2023-02-01T03:34:19;23.50;38.30
14705;DHT22;7442;50.840;3.396;2023-02-01T03:37:08;23.50;38.40
14705;DHT22;7442;50.840;3.396;2023-02-01T03:40:06;23.60;38.40
14705;DHT22;7442;50.840;3.396;2023-02-01T03:42:54;23.70;38.10
14705;DHT22;7442;50.840;3.396;2023-02-01T03:45:43;23.80;37.90
14705;DHT22;7442;50.840;3.396;2023-02-01T03:48:30;23.80;37.90
14705;DHT22;7442;50.840;3.396;2023-02-01T03:51:19;23.80;37.90
14705;DHT22;7442;50.840;3.396;2023-02-01T03:54:09;23.70;37.90
14705;DHT22;7442;50.840;3.396;2023-02-01T03:56:57;23.80;37.90
14705;DHT22;7442;50.840;3.396;2023-02-01T03:59:45;23.80;37.90
14705;DHT22;7442;50.840;3.396;2023-02-01T04:02:32;23.80;37.90
14705;DHT22;7442;50.840;3.396;2023-02-01T04:05:19;23.70;38.00
14705;DHT22;7442;50.840;3.396;2023-02-01T04:08:05;23.70;38.10
14705;DHT22;7442;50.840;3.396;2023-02-01T04:10:52;23.70;38.20
14705;DHT22;7442;50.840;3.396;2023-02-01T04:13:38;23.60;38.20
14705;DHT22;7442;50.840;3.396;2023-02-01T04:16:24;23.60;38.40
14705;DHT22;7442;50.840;3.396;2023-02-01T04:19:11;23.50;38.40
14705;DHT22;7442;50.840;3.396;2023-02-01T04:21:57;23.60;38.50
14705;DHT22;7442;50.840;3.396;2023-02-01T04:24:44;23.50;38.50
14705;DHT22;7442;50.840;3.396;2023-02-01T04:27:31;23.50;38.50
14705;DHT22;7442;50.840;3.396;2023-02-01T04:30:18;23.50;38.60
14705;DHT22;7442;50.840;3.396;2023-02-01T04:33:04;23.40;38.60
14705;DHT22;7442;50.840;3.396;2023-02-01T04:35:51;23.40;38.70
14705;DHT22;7442;50.840;3.396;2023-02-01T04:38:37;23.40;38.70
14705;DHT22;7442;50.840;3.396;2023-02-01T04:41:24;23.50;38.70
14705;DHT22;7442;50.840;3.396;2023-02-01T04:44:19;23.40;38.60
14705;DHT22;7442;50.840;3.396;2023-02-01T04:47:03;23.40;38.70
14705;DHT22;7442;50.840;3.396;2023-02-01T04:49:49;23.40;38.70
14705;DHT22;7442;50.840;3.396;2023-02-01T04:52:35;23.40;38.70
14705;DHT22;7442;50.840;3.396;2023-02-01T04:55:22;23.40;38.70
14705;DHT22;7442;50.840;3.396;2023-02-01T04:58:09;23.40;38.80
14705;DHT22;7442;50.840;3.396;2023-02-01T05:00:55;23.40;38.70
14705;DHT22;7442;50.840;3.396;2023-02-01T05:03:42;23.50;38.70
14705;DHT22;7442;50.840;3.396;2023-02-01T05:06:30;23.40;38.70
14705;DHT22;7442;50.840;3.396;2023-02-01T05:09:16;23.40;38.70
14705;DHT22;7442;50.840;3.396;2023-02-01T05:12:02;23.40;38.70
14705;DHT22;7442;50.840;3.396;2023-02-01T05:15:07;23.50;38.70
14705;DHT22;7442;50.840;3.396;2023-02-01T05:17:53;23.40;38.70
14705;DHT22;7442;50.840;3.396;2023-02-01T05:20:39;23.50;38.70
14705;DHT22;7442;50.840;3.396;2023-02-01T05:23:26;23.40;38.70
14705;DHT22;7442;50.840;3.396;2023-02-01T05:26:12;23.40;38.70
14705;DHT22;7442;50.840;3.396;2023-02-01T05:28:59;23.40;38.70
14705;DHT22;7442;50.840;3.396;2023-02-01T05:31:46;23.50;38.70
14705;DHT22;7442;50.840;3.396;2023-02-01T05:34:33;23.50;38.60
14705;DHT22;7442;50.840;3.396;2023-02-01T05:37:19;23.50;38.80
14705;DHT22;7442;50.840;3.396;2023-02-01T05:40:06;23.50;38.70
14705;DHT22;7442;50.840;3.396;2023-02-01T05:42:52;23.50;38.70
14705;DHT22;7442;50.840;3.396;2023-02-01T05:45:39;23.50;38.70
14705;DHT22;7442;50.840;3.396;2023-02-01T05:48:25;23.50;38.70
14705;DHT22;7442;50.840;3.396;2023-02-01T05:51:11;23.40;38.70
14705;DHT22;7442;50.840;3.396;2023-02-01T05:53:58;23.50;38.60
14705;DHT22;7442;50.840;3.396;2023-02-01T05:56:44;23.40;38.60
14705;DHT22;7442;50.840;3.396;2023-02-01T05:59:31;23.50;38.60
14705;DHT22;7442;50.840;3.396;2023-02-01T06:02:17;23.60;38.60
14705;DHT22;7442;50.840;3.396;2023-02-01T06:05:04;23.60;38.60
14705;DHT22;7442;50.840;3.396;2023-02-01T06:07:51;23.60;38.50
14705;DHT22;7442;50.840;3.396;2023-02-01T06:10:37;23.50;38.60
14705;DHT22;7442;50.840;3.396;2023-02-01T06:13:23;23.60;38.50
14705;DHT22;7442;50.840;3.396;2023-02-01T06:16:10;23.50;38.50
14705;DHT22;7442;50.840;3.396;2023-02-01T06:18:56;23.60;38.50
14705;DHT22;7442;50.840;3.396;2023-02-01T06:21:43;23.50;38.70
14705;DHT22;7442;50.840;3.396;2023-02-01T06:24:36;23.50;38.60
14705;DHT22;7442;50.840;3.396;2023-02-01T06:27:23;23.60;38.50
14705;DHT22;7442;50.840;3.396;2023-02-01T06:30:10;23.60;38.20
14705;DHT22;7442;50.840;3.396;2023-02-01T06:32:58;23.60;38.10
14705;DHT22;7442;50.840;3.396;2023-02-01T06:35:45;23.60;38.30
14705;DHT22;7442;50.840;3.396;2023-02-01T06:38:33;23.60;38.20
14705;DHT22;7442;50.840;3.396;2023-02-01T06:41:24;23.60;38.30
14705;DHT22;7442;50.840;3.396;2023-02-01T06:44:10;23.60;38.40
14705;DHT22;7442;50.840;3.396;2023-02-01T06:46:56;23.50;38.40
14705;DHT22;7442;50.840;3.396;2023-02-01T06:49:43;23.50;38.50
14705;DHT22;7442;50.840;3.396;2023-02-01T06:52:29;23.60;38.60
14705;DHT22;7442;50.840;3.396;2023-02-01T06:55:15;23.60;38.40
14705;DHT22;7442;50.840;3.396;2023-02-01T06:58:02;23.60;38.50
14705;DHT22;7442;50.840;3.396;2023-02-01T07:00:49;23.60;38.40
14705;DHT22;7442;50.840;3.396;2023-02-01T07:03:36;23.70;38.30
14705;DHT22;7442;50.840;3.396;2023-02-01T07:06:22;23.60;38.30
14705;DHT22;7442;50.840;3.396;2023-02-01T07:09:10;23.60;38.40
14705;DHT22;7442;50.840;3.396;2023-02-01T07:11:57;23.60;38.40
14705;DHT22;7442;50.840;3.396;2023-02-01T07:14:43;23.60;38.40
14705;DHT22;7442;50.840;3.396;2023-02-01T07:17:30;23.60;38.40
14705;DHT22;7442;50.840;3.396;2023-02-01T07:20:16;23.80;38.10
14705;DHT22;7442;50.840;3.396;2023-02-01T07:23:03;23.70;38.20
14705;DHT22;7442;50.840;3.396;2023-02-01T07:25:57;23.80;38.10
14705;DHT22;7442;50.840;3.396;2023-02-01T07:28:43;23.80;38.10
14705;DHT22;7442;50.840;3.396;2023-02-01T07:31:31;23.70;38.30
14705;DHT22;7442;50.840;3.396;2023-02-01T07:34:18;23.70;38.10
14705;DHT22;7442;50.840;3.396;2023-02-01T07:37:04;23.90;38.00
14705;DHT22;7442;50.840;3.396;2023-02-01T07:39:52;23.90;37.90
14705;DHT22;7442;50.840;3.396;2023-02-01T07:42:38;24.00;37.70
14705;DHT22;7442;50.840;3.396;2023-02-01T07:45:25;24.00;37.60
14705;DHT22;7442;50.840;3.396;2023-02-01T07:48:11;24.10;37.70
14705;DHT22;7442;50.840;3.396;2023-02-01T07:51:06;24.10;37.60
14705;DHT22;7442;50.840;3.396;2023-02-01T07:53:52;24.10;37.60
14705;DHT22;7442;50.840;3.396;2023-02-01T07:56:39;24.20;37.30
14705;DHT22;7442;50.840;3.396;2023-02-01T07:59:26;24.30;37.30
14705;DHT22;7442;50.840;3.396;2023-02-01T08:02:12;24.30;37.30
14705;DHT22;7442;50.840;3.396;2023-02-01T08:04:59;24.30;37.20
14705;DHT22;7442;50.840;3.396;2023-02-01T08:07:50;24.30;37.20
14705;DHT22;7442;50.840;3.396;2023-02-01T08:10:36;24.30;37.20
14705;DHT22;7442;50.840;3.396;2023-02-01T08:13:23;24.30;37.20
14705;DHT22;7442;50.840;3.396;2023-02-01T08:16:12;24.30;37.20
14705;DHT22;7442;50.840;3.396;2023-02-01T08:18:58;24.30;37.20
14705;DHT22;7442;50.840;3.396;2023-02-01T08:21:44;24.30;37.20
14705;DHT22;7442;50.840;3.396;2023-02-01T08:24:33;24.40;37.10
14705;DHT22;7442;50.840;3.396;2023-02-01T08:27:28;24.50;37.00
14705;DHT22;7442;50.840;3.396;2023-02-01T08:30:08;24.50;37.00
14705;DHT22;7442;50.840;3.396;2023-02-01T08:32:55;24.50;36.90
14705;DHT22;7442;50.840;3.396;2023-02-01T08:35:42;24.50;36.90
14705;DHT22;7442;50.840;3.396;2023-02-01T08:38:29;24.50;36.90
14705;DHT22;7442;50.840;3.396;2023-02-01T08:41:17;24.60;36.90
14705;DHT22;7442;50.840;3.396;2023-02-01T08:44:04;24.50;37.00
14705;DHT22;7442;50.840;3.396;2023-02-01T08:46:51;24.50;37.00
14705;DHT22;7442;50.840;3.396;2023-02-01T08:49:37;24.50;36.90
14705;DHT22;7442;50.840;3.396;2023-02-01T08:52:23;24.60;37.00
14705;DHT22;7442;50.840;3.396;2023-02-01T08:55:11;24.60;36.90
14705;DHT22;7442;50.840;3.396;2023-02-01T08:57:57;24.60;36.80
14705;DHT22;7442;50.840;3.396;2023-02-01T09:00:44;24.70;37.40
14705;DHT22;7442;50.840;3.396;2023-02-01T09:03:31;24.60;36.80
14705;DHT22;7442;50.840;3.396;2023-02-01T09:06:17;24.70;36.80
14705;DHT22;7442;50.840;3.396;2023-02-01T09:09:04;24.70;36.70
14705;DHT22;7442;50.840;3.396;2023-02-01T09:11:50;24.60;36.60
14705;DHT22;7442;50.840;3.396;2023-02-01T09:14:37;24.70;36.60
14705;DHT22;7442;50.840;3.396;2023-02-01T09:17:23;24.80;36.50
14705;DHT22;7442;50.840;3.396;2023-02-01T09:20:10;24.70;36.50
14705;DHT22;7442;50.840;3.396;2023-02-01T09:22:57;24.80;36.60
14705;DHT22;7442;50.840;3.396;2023-02-01T09:25:45;24.80;36.60
14705;DHT22;7442;50.840;3.396;2023-02-01T09:28:33;24.80;36.60
14705;DHT22;7442;50.840;3.396;2023-02-01T09:31:20;24.70;36.60
14705;DHT22;7442;50.840;3.396;2023-02-01T09:34:07;24.80;36.60
14705;DHT22;7442;50.840;3.396;2023-02-01T09:36:53;24.80;36.50
14705;DHT22;7442;50.840;3.396;2023-02-01T09:39:40;24.80;36.60
14705;DHT22;7442;50.840;3.396;2023-02-01T09:42:42;24.80;36.60
14705;DHT22;7442;50.840;3.396;2023-02-01T09:45:51;24.80;36.60
14705;DHT22;7442;50.840;3.396;2023-02-01T09:48:38;24.90;36.70
14705;DHT22;7442;50.840;3.396;2023-02-01T09:51:34;24.80;36.70
14705;DHT22;7442;50.840;3.396;2023-02-01T09:54:25;24.80;37.00
14705;DHT22;7442;50.840;3.396;2023-02-01T09:57:23;24.90;36.80
14705;DHT22;7442;50.840;3.396;2023-02-01T10:00:13;24.90;36.70
14705;DHT22;7442;50.840;3.396;2023-02-01T10:02:58;24.90;36.50
14705;DHT22;7442;50.840;3.396;2023-02-01T10:12:57;24.90;36.50
14705;DHT22;7442;50.840;3.396;2023-02-01T10:21:48;25.10;36.30
14705;DHT22;7442;50.840;3.396;2023-02-01T10:24:52;25.20;36.30
14705;DHT22;7442;50.840;3.396;2023-02-01T10:27:40;25.30;36.10
14705;DHT22;7442;50.840;3.396;2023-02-01T10:30:33;25.30;36.00
14705;DHT22;7442;50.840;3.396;2023-02-01T10:33:39;25.40;36.00
14705;DHT22;7442;50.840;3.396;2023-02-01T10:36:23;25.30;36.00
14705;DHT22;7442;50.840;3.396;2023-02-01T10:39:11;25.30;36.00
14705;DHT22;7442;50.840;3.396;2023-02-01T10:41:58;25.40;35.90
14705;DHT22;7442;50.840;3.396;2023-02-01T10:44:45;25.40;35.90
14705;DHT22;7442;50.840;3.396;2023-02-01T10:47:33;25.40;36.00
14705;DHT22;7442;50.840;3.396;2023-02-01T10:53:29;25.40;35.90
14705;DHT22;7442;50.840;3.396;2023-02-01T10:56:24;25.50;35.80
14705;DHT22;7442;50.840;3.396;2023-02-01T10:59:20;25.50;35.80
14705;DHT22;7442;50.840;3.396;2023-02-01T11:02:33;25.50;35.70
14705;DHT22;7442;50.840;3.396;2023-02-01T11:05:16;25.50;35.70
14705;DHT22;7442;50.840;3.396;2023-02-01T11:08:04;25.60;35.60
14705;DHT22;7442;50.840;3.396;2023-02-01T11:11:02;25.70;35.60
14705;DHT22;7442;50.840;3.396;2023-02-01T11:13:40;25.70;35.50
14705;DHT22;7442;50.840;3.396;2023-02-01T11:16:35;25.80;35.50
14705;DHT22;7442;50.840;3.396;2023-02-01T11:19:22;25.80;34.10
14705;DHT22;7442;50.840;3.396;2023-02-01T11:22:10;25.70;33.20
14705;DHT22;7442;50.840;3.396;2023-02-01T11:24:59;25.80;34.40
14705;DHT22;7442;50.840;3.396;2023-02-01T11:27:55;25.80;34.40
14705;DHT22;7442;50.840;3.396;2023-02-01T11:30:44;25.90;34.50
14705;DHT22;7442;50.840;3.396;2023-02-01T11:33:34;25.90;34.50
14705;DHT22;7442;50.840;3.396;2023-02-01T11:36:23;26.00;34.40
14705;DHT22;7442;50.840;3.396;2023-02-01T11:42:15;26.10;34.60
14705;DHT22;7442;50.840;3.396;2023-02-01T11:45:27;26.10;34.60
14705;DHT22;7442;50.840;3.396;2023-02-01T11:48:18;26.00;33.50
14705;DHT22;7442;50.840;3.396;2023-02-01T11:51:25;26.00;34.40
14705;DHT22;7442;50.840;3.396;2023-02-01T11:54:27;26.10;34.40
14705;DHT22;7442;50.840;3.396;2023-02-01T12:06:50;26.20;34.50
14705;DHT22;7442;50.840;3.396;2023-02-01T12:12:25;26.20;34.60
14705;DHT22;7442;50.840;3.396;2023-02-01T12:18:29;26.30;34.60
14705;DHT22;7442;50.840;3.396;2023-02-01T12:21:31;26.30;34.50
14705;DHT22;7442;50.840;3.396;2023-02-01T12:24:53;26.30;34.60
14705;DHT22;7442;50.840;3.396;2023-02-01T12:27:51;26.30;34.60
14705;DHT22;7442;50.840;3.396;2023-02-01T12:30:58;26.40;34.50
14705;DHT22;7442;50.840;3.396;2023-02-01T12:46:52;26.50;34.60
14705;DHT22;7442;50.840;3.396;2023-02-01T12:52:49;26.50;34.60
14705;DHT22;7442;50.840;3.396;2023-02-01T12:55:34;26.40;34.60
14705;DHT22;7442;50.840;3.396;2023-02-01T12:58:35;26.40;34.70
14705;DHT22;7442;50.840;3.396;2023-02-01T13:01:25;26.50;34.60
14705;DHT22;7442;50.840;3.396;2023-02-01T13:07:18;26.50;34.60
14705;DHT22;7442;50.840;3.396;2023-02-01T13:10:03;26.50;34.50
14705;DHT22;7442;50.840;3.396;2023-02-01T13:13:29;26.60;34.60
14705;DHT22;7442;50.840;3.396;2023-02-01T13:16:06;26.60;34.60
14705;DHT22;7442;50.840;3.396;2023-02-01T13:18:53;26.60;34.60
14705;DHT22;7442;50.840;3.396;2023-02-01T13:21:43;26.70;34.60
14705;DHT22;7442;50.840;3.396;2023-02-01T13:24:44;26.70;34.60
14705;DHT22;7442;50.840;3.396;2023-02-01T13:27:33;26.70;34.60
14705;DHT22;7442;50.840;3.396;2023-02-01T13:30:30;26.80;34.60
14705;DHT22;7442;50.840;3.396;2023-02-01T13:36:32;26.80;34.60
14705;DHT22;7442;50.840;3.396;2023-02-01T13:39:22;26.70;34.60
14705;DHT22;7442;50.840;3.396;2023-02-01T13:42:17;26.70;34.60
14705;DHT22;7442;50.840;3.396;2023-02-01T13:45:06;26.80;34.60
14705;DHT22;7442;50.840;3.396;2023-02-01T13:47:56;26.80;34.70
14705;DHT22;7442;50.840;3.396;2023-02-01T13:50:43;26.80;34.80
14705;DHT22;7442;50.840;3.396;2023-02-01T13:53:35;26.70;34.70
14705;DHT22;7442;50.840;3.396;2023-02-01T13:56:25;26.70;34.70
14705;DHT22;7442;50.840;3.396;2023-02-01T14:08:42;26.80;34.90
14705;DHT22;7442;50.840;3.396;2023-02-01T14:11:37;26.80;34.90
14705;DHT22;7442;50.840;3.396;2023-02-01T14:17:32;26.80;34.80
14705;DHT22;7442;50.840;3.396;2023-02-01T14:20:39;26.80;34.80
14705;DHT22;7442;50.840;3.396;2023-02-01T14:23:28;26.80;34.90
14705;DHT22;7442;50.840;3.396;2023-02-01T14:26:27;26.80;35.00
14705;DHT22;7442;50.840;3.396;2023-02-01T14:29:32;26.70;35.00
14705;DHT22;7442;50.840;3.396;2023-02-01T14:32:21;26.70;35.00
14705;DHT22;7442;50.840;3.396;2023-02-01T14:35:16;26.80;34.90
14705;DHT22;7442;50.840;3.396;2023-02-01T14:38:01;26.80;34.90
14705;DHT22;7442;50.840;3.396;2023-02-01T14:40:49;26.90;34.80
14705;DHT22;7442;50.840;3.396;2023-02-01T14:43:49;26.80;34.80
14705;DHT22;7442;50.840;3.396;2023-02-01T14:47:07;26.90;34.90
14705;DHT22;7442;50.840;3.396;2023-02-01T14:50:22;26.80;34.80
14705;DHT22;7442;50.840;3.396;2023-02-01T14:59:06;26.90;34.80
14705;DHT22;7442;50.840;3.396;2023-02-01T15:01:55;27.00;34.80
14705;DHT22;7442;50.840;3.396;2023-02-01T15:04:43;26.80;34.90
14705;DHT22;7442;50.840;3.396;2023-02-01T15:07:30;26.80;34.90
14705;DHT22;7442;50.840;3.396;2023-02-01T15:10:18;26.80;34.80
14705;DHT22;7442;50.840;3.396;2023-02-01T15:13:05;26.80;34.90
14705;DHT22;7442;50.840;3.396;2023-02-01T15:16:03;26.90;34.90
14705;DHT22;7442;50.840;3.396;2023-02-01T15:18:50;26.90;34.90
14705;DHT22;7442;50.840;3.396;2023-02-01T15:21:46;26.50;35.70
14705;DHT22;7442;50.840;3.396;2023-02-01T15:24:33;26.60;35.20
14705;DHT22;7442;50.840;3.396;2023-02-01T15:27:20;26.70;35.20
14705;DHT22;7442;50.840;3.396;2023-02-01T15:30:31;26.70;35.10
14705;DHT22;7442;50.840;3.396;2023-02-01T15:36:10;26.70;35.20
14705;DHT22;7442;50.840;3.396;2023-02-01T15:39:22;26.70;35.20
14705;DHT22;7442;50.840;3.396;2023-02-01T15:42:12;26.60;35.20
14705;DHT22;7442;50.840;3.396;2023-02-01T15:45:04;26.70;35.30
14705;DHT22;7442;50.840;3.396;2023-02-01T15:47:52;26.50;35.30
14705;DHT22;7442;50.840;3.396;2023-02-01T15:50:40;26.50;35.40
14705;DHT22;7442;50.840;3.396;2023-02-01T15:53:26;26.40;35.40
14705;DHT22;7442;50.840;3.396;2023-02-01T15:56:15;26.40;35.60
14705;DHT22;7442;50.840;3.396;2023-02-01T15:59:04;26.20;35.60
14705;DHT22;7442;50.840;3.396;2023-02-01T16:01:52;26.30;35.70
14705;DHT22;7442;50.840;3.396;2023-02-01T16:04:46;26.20;35.80
14705;DHT22;7442;50.840;3.396;2023-02-01T16:07:33;26.20;35.80
14705;DHT22;7442;50.840;3.396;2023-02-01T16:10:25;26.20;35.80
14705;DHT22;7442;50.840;3.396;2023-02-01T16:13:13;26.10;35.80
14705;DHT22;7442;50.840;3.396;2023-02-01T16:16:00;26.20;35.80
14705;DHT22;7442;50.840;3.396;2023-02-01T16:18:47;26.20;35.80
14705;DHT22;7442;50.840;3.396;2023-02-01T16:21:34;26.20;35.70
14705;DHT22;7442;50.840;3.396;2023-02-01T16:24:20;26.20;35.80
14705;DHT22;7442;50.840;3.396;2023-02-01T16:27:08;26.10;35.70
14705;DHT22;7442;50.840;3.396;2023-02-01T16:29:55;26.00;35.90
14705;DHT22;7442;50.840;3.396;2023-02-01T16:32:42;26.10;35.90
14705;DHT22;7442;50.840;3.396;2023-02-01T16:35:32;26.10;36.00
14705;DHT22;7442;50.840;3.396;2023-02-01T16:38:19;25.90;36.10
14705;DHT22;7442;50.840;3.396;2023-02-01T16:41:09;25.90;36.30
14705;DHT22;7442;50.840;3.396;2023-02-01T16:43:55;25.80;36.30
14705;DHT22;7442;50.840;3.396;2023-02-01T16:46:43;25.70;36.30
14705;DHT22;7442;50.840;3.396;2023-02-01T16:49:37;25.70;36.40
14705;DHT22;7442;50.840;3.396;2023-02-01T16:52:26;25.70;36.50
14705;DHT22;7442;50.840;3.396;2023-02-01T16:55:17;25.70;36.50
14705;DHT22;7442;50.840;3.396;2023-02-01T16:58:04;25.50;36.50
14705;DHT22;7442;50.840;3.396;2023-02-01T17:00:51;25.50;36.70
14705;DHT22;7442;50.840;3.396;2023-02-01T17:03:39;25.50;36.90
14705;DHT22;7442;50.840;3.396;2023-02-01T17:06:26;25.50;36.80
14705;DHT22;7442;50.840;3.396;2023-02-01T17:09:14;25.50;36.80
14705;DHT22;7442;50.840;3.396;2023-02-01T17:12:01;25.50;36.70
14705;DHT22;7442;50.840;3.396;2023-02-01T17:14:48;25.50;36.70
14705;DHT22;7442;50.840;3.396;2023-02-01T17:17:37;25.40;36.70
14705;DHT22;7442;50.840;3.396;2023-02-01T17:20:26;25.40;36.80
14705;DHT22;7442;50.840;3.396;2023-02-01T17:23:15;25.30;36.70
14705;DHT22;7442;50.840;3.396;2023-02-01T17:26:02;25.40;36.90
14705;DHT22;7442;50.840;3.396;2023-02-01T17:28:49;25.40;36.80
14705;DHT22;7442;50.840;3.396;2023-02-01T17:31:53;25.30;36.80
14705;DHT22;7442;50.840;3.396;2023-02-01T17:34:26;25.30;36.90
14705;DHT22;7442;50.840;3.396;2023-02-01T17:37:29;25.20;36.90
14705;DHT22;7442;50.840;3.396;2023-02-01T17:40:14;25.20;36.90
14705;DHT22;7442;50.840;3.396;2023-02-01T17:43:01;25.20;36.90
14705;DHT22;7442;50.840;3.396;2023-02-01T17:45:55;25.20;36.90
14705;DHT22;7442;50.840;3.396;2023-02-01T17:48:37;25.20;37.00
14705;DHT22;7442;50.840;3.396;2023-02-01T17:51:27;25.20;37.00
14705;DHT22;7442;50.840;3.396;2023-02-01T17:54:15;25.20;37.00
14705;DHT22;7442;50.840;3.396;2023-02-01T17:57:04;25.10;37.00
14705;DHT22;7442;50.840;3.396;2023-02-01T17:59:49;25.10;37.10
14705;DHT22;7442;50.840;3.396;2023-02-01T18:02:36;25.10;37.10
14705;DHT22;7442;50.840;3.396;2023-02-01T18:05:26;25.10;37.10
14705;DHT22;7442;50.840;3.396;2023-02-01T18:08:14;25.00;37.20
14705;DHT22;7442;50.840;3.396;2023-02-01T18:11:01;25.00;37.20
14705;DHT22;7442;50.840;3.396;2023-02-01T18:13:49;25.10;37.20
14705;DHT22;7442;50.840;3.396;2023-02-01T18:16:37;25.00;37.20
14705;DHT22;7442;50.840;3.396;2023-02-01T18:19:25;25.00;37.20
14705;DHT22;7442;50.840;3.396;2023-02-01T18:22:17;25.00;37.20
14705;DHT22;7442;50.840;3.396;2023-02-01T18:25:19;25.00;37.20
14705;DHT22;7442;50.840;3.396;2023-02-01T18:28:06;24.90;37.10
14705;DHT22;7442;50.840;3.396;2023-02-01T18:30:54;24.90;37.10
14705;DHT22;7442;50.840;3.396;2023-02-01T18:33:41;24.90;37.20
14705;DHT22;7442;50.840;3.396;2023-02-01T18:36:27;24.90;37.20
14705;DHT22;7442;50.840;3.396;2023-02-01T18:39:14;24.90;37.20
14705;DHT22;7442;50.840;3.396;2023-02-01T18:42:00;24.90;37.30
14705;DHT22;7442;50.840;3.396;2023-02-01T18:44:53;24.90;37.30
14705;DHT22;7442;50.840;3.396;2023-02-01T18:47:39;24.90;37.30
14705;DHT22;7442;50.840;3.396;2023-02-01T18:50:29;24.90;37.30
14705;DHT22;7442;50.840;3.396;2023-02-01T18:53:20;24.80;37.30
14705;DHT22;7442;50.840;3.396;2023-02-01T18:56:12;24.80;37.40
14705;DHT22;7442;50.840;3.396;2023-02-01T18:58:59;24.70;37.50
14705;DHT22;7442;50.840;3.396;2023-02-01T19:01:46;24.80;37.40
14705;DHT22;7442;50.840;3.396;2023-02-01T19:04:33;24.70;37.50
14705;DHT22;7442;50.840;3.396;2023-02-01T19:07:19;24.80;37.40
14705;DHT22;7442;50.840;3.396;2023-02-01T19:10:08;24.70;37.40
14705;DHT22;7442;50.840;3.396;2023-02-01T19:12:55;24.70;37.40
14705;DHT22;7442;50.840;3.396;2023-02-01T19:15:42;24.70;37.50
14705;DHT22;7442;50.840;3.396;2023-02-01T19:18:29;24.70;37.40
14705;DHT22;7442;50.840;3.396;2023-02-01T19:21:15;24.60;37.40
14705;DHT22;7442;50.840;3.396;2023-02-01T19:24:02;24.70;37.40
14705;DHT22;7442;50.840;3.396;2023-02-01T19:26:49;24.60;37.50
14705;DHT22;7442;50.840;3.396;2023-02-01T19:29:36;24.60;37.50
14705;DHT22;7442;50.840;3.396;2023-02-01T19:32:22;24.60;37.40
14705;DHT22;7442;50.840;3.396;2023-02-01T19:35:11;24.50;37.50
14705;DHT22;7442;50.840;3.396;2023-02-01T19:37:57;24.60;37.50
14705;DHT22;7442;50.840;3.396;2023-02-01T19:40:44;24.60;37.50
14705;DHT22;7442;50.840;3.396;2023-02-01T19:43:31;24.50;37.60